sensor_id;sensor_type;location;lat;lon;timestamp;pressure;altitude;pressure_sealevel;temperature;humidity
31595;BME280;18200;48.726;8.892;2022-07-23T00:02:06;96791.84;;;35.01;29.82
31595;BME280;18200;48.726;8.892;2022-07-23T00:06:07;96791.97;;;34.68;29.83
31595;BME280;18200;48.726;8.892;2022-07-23T00:10:07;96796.03;;;35.19;29.17
31595;BME280;18200;48.726;8.892;2022-07-23T00:14:08;96791.88;;;35.31;29.02
31595;BME280;18200;48.726;8.892;2022-07-23T00:18:08;96770.88;;;35.19;29.92
31595;BME280;18200;48.726;8.892;2022-07-23T00:22:09;96773.13;;;35.26;29.67
31595;BME280;18200;48.726;8.892;2022-07-23T00:26:09;96773.97;;;34.69;30.20
31595;BME280;18200;48.726;8.892;2022-07-23T00:30:10;96783.09;;;34.69;30.37
31595;BME280;18200;48.726;8.892;2022-07-23T00:34:11;96743.31;;;34.58;31.15
31595;BME280;18200;48.726;8.892;2022-07-23T00:38:11;96750.34;;;33.96;32.14
31595;BME280;18200;48.726;8.892;2022-07-23T00:42:12;96737.97;;;33.47;32.36
31595;BME280;18200;48.726;8.892;2022-07-23T00:46:12;96728.38;;;34.44;30.67
31595;BME280;18200;48.726;8.892;2022-07-23T00:50:13;96739.69;;;34.11;31.10
31595;BME280;18200;48.726;8.892;2022-07-23T00:54:13;96761.25;;;33.94;31.74
31595;BME280;18200;48.726;8.892;2022-07-23T00:58:16;96762.91;;;34.93;30.45
31595;BME280;18200;48.726;8.892;2022-07-23T01:02:16;96763.38;;;34.45;31.09
31595;BME280;18200;48.726;8.892;2022-07-23T01:06:17;96728.50;;;34.22;31.23
31595;BME280;18200;48.726;8.892;2022-07-23T01:10:17;96748.19;;;32.47;33.51
31595;BME280;18200;48.726;8.892;2022-07-23T01:14:33;96730.09;;;34.01;30.70
31595;BME280;18200;48.726;8.892;2022-07-23T01:18:34;96723.47;;;34.04;31.30
31595;BME280;18200;48.726;8.892;2022-07-23T01:22:34;96684.50;;;34.85;29.28
31595;BME280;18200;48.726;8.892;2022-07-23T01:26:35;96696.91;;;34.49;30.50
31595;BME280;18200;48.726;8.892;2022-07-23T01:30:36;96722.66;;;34.20;31.45
31595;BME280;18200;48.726;8.892;2022-07-23T01:34:40;96695.75;;;34.28;31.78
31595;BME280;18200;48.726;8.892;2022-07-23T01:38:41;96671.81;;;34.44;31.34
31595;BME280;18200;48.726;8.892;2022-07-23T01:42:41;96654.88;;;33.56;32.55
31595;BME280;18200;48.726;8.892;2022-07-23T01:46:43;96704.50;;;32.64;34.70
31595;BME280;18200;48.726;8.892;2022-07-23T01:50:46;96722.97;;;32.72;35.91
31595;BME280;18200;48.726;8.892;2022-07-23T01:54:55;96709.84;;;32.89;35.61
31595;BME280;18200;48.726;8.892;2022-07-23T01:58:55;96720.25;;;33.00;34.84
31595;BME280;18200;48.726;8.892;2022-07-23T02:02:56;96724.06;;;33.08;35.57
31595;BME280;18200;48.726;8.892;2022-07-23T02:06:58;96718.50;;;33.41;34.47
31595;BME280;18200;48.726;8.892;2022-07-23T02:11:00;96731.06;;;32.70;36.15
31595;BME280;18200;48.726;8.892;2022-07-23T02:15:00;96743.47;;;32.10;37.40
31595;BME280;18200;48.726;8.892;2022-07-23T02:19:02;96746.81;;;32.90;36.08
31595;BME280;18200;48.726;8.892;2022-07-23T02:23:02;96760.91;;;32.75;35.39
31595;BME280;18200;48.726;8.892;2022-07-23T02:27:04;96775.09;;;32.13;37.42
31595;BME280;18200;48.726;8.892;2022-07-23T02:31:06;96793.22;;;32.51;37.22
31595;BME280;18200;48.726;8.892;2022-07-23T02:35:07;96807.44;;;32.64;36.59
31595;BME280;18200;48.726;8.892;2022-07-23T02:39:08;96815.63;;;31.06;38.79
31595;BME280;18200;48.726;8.892;2022-07-23T02:43:09;96813.75;;;31.80;37.17
31595;BME280;18200;48.726;8.892;2022-07-23T02:47:10;96819.06;;;31.47;37.40
31595;BME280;18200;48.726;8.892;2022-07-23T02:51:11;96821.88;;;31.52;37.56
31595;BME280;18200;48.726;8.892;2022-07-23T02:55:16;96826.81;;;31.99;36.00
31595;BME280;18200;48.726;8.892;2022-07-23T02:59:17;96829.00;;;31.90;36.36
31595;BME280;18200;48.726;8.892;2022-07-23T03:03:18;96832.31;;;32.84;35.05
31595;BME280;18200;48.726;8.892;2022-07-23T03:07:47;96830.66;;;33.09;34.36
31595;BME280;18200;48.726;8.892;2022-07-23T03:11:47;96826.34;;;33.13;34.63
31595;BME280;18200;48.726;8.892;2022-07-23T03:15:47;96822.69;;;32.85;35.14
31595;BME280;18200;48.726;8.892;2022-07-23T03:19:48;96822.25;;;31.96;37.38
31595;BME280;18200;48.726;8.892;2022-07-23T03:23:48;96819.41;;;31.91;37.82
31595;BME280;18200;48.726;8.892;2022-07-23T03:27:48;96822.25;;;31.96;37.71
31595;BME280;18200;48.726;8.892;2022-07-23T03:31:49;96817.34;;;32.23;36.92
31595;BME280;18200;48.726;8.892;2022-07-23T03:35:49;96821.31;;;32.53;36.87
31595;BME280;18200;48.726;8.892;2022-07-23T03:39:56;96805.28;;;32.37;36.94
31595;BME280;18200;48.726;8.892;2022-07-23T03:43:57;96806.63;;;32.47;36.68
31595;BME280;18200;48.726;8.892;2022-07-23T03:47:57;96802.41;;;32.68;35.86
31595;BME280;18200;48.726;8.892;2022-07-23T03:51:58;96811.19;;;32.07;36.52
31595;BME280;18200;48.726;8.892;2022-07-23T03:55:58;96822.34;;;31.45;38.86
31595;BME280;18200;48.726;8.892;2022-07-23T03:59:59;96823.94;;;31.57;38.15
31595;BME280;18200;48.726;8.892;2022-07-23T04:04:00;96815.50;;;32.08;37.40
31595;BME280;18200;48.726;8.892;2022-07-23T04:08:01;96834.63;;;31.64;37.71
31595;BME280;18200;48.726;8.892;2022-07-23T04:12:01;96828.81;;;31.11;39.83
31595;BME280;18200;48.726;8.892;2022-07-23T04:16:02;96825.75;;;31.34;38.29
31595;BME280;18200;48.726;8.892;2022-07-23T04:20:04;96833.75;;;31.53;38.56
31595;BME280;18200;48.726;8.892;2022-07-23T04:24:10;96820.38;;;32.25;36.60
31595;BME280;18200;48.726;8.892;2022-07-23T04:28:10;96811.72;;;32.11;37.25
31595;BME280;18200;48.726;8.892;2022-07-23T04:32:11;96826.03;;;31.62;38.60
31595;BME280;18200;48.726;8.892;2022-07-23T04:36:11;96825.78;;;31.66;37.67
31595;BME280;18200;48.726;8.892;2022-07-23T04:40:12;96833.75;;;31.27;38.41
31595;BME280;18200;48.726;8.892;2022-07-23T04:44:13;96834.88;;;31.66;37.97
31595;BME280;18200;48.726;8.892;2022-07-23T04:48:13;96837.06;;;31.31;38.64
31595;BME280;18200;48.726;8.892;2022-07-23T04:52:15;96843.38;;;32.20;36.87
31595;BME280;18200;48.726;8.892;2022-07-23T04:56:15;96815.75;;;32.10;36.99
31595;BME280;18200;48.726;8.892;2022-07-23T05:00:16;96831.81;;;32.32;36.25
31595;BME280;18200;48.726;8.892;2022-07-23T05:04:17;96844.69;;;32.30;37.02
31595;BME280;18200;48.726;8.892;2022-07-23T05:08:18;96838.09;;;32.27;36.87
31595;BME280;18200;48.726;8.892;2022-07-23T05:12:23;96837.88;;;32.31;36.37
31595;BME280;18200;48.726;8.892;2022-07-23T05:16:24;96842.91;;;32.27;36.58
31595;BME280;18200;48.726;8.892;2022-07-23T05:20:27;96844.09;;;32.14;36.87
31595;BME280;18200;48.726;8.892;2022-07-23T05:24:27;96844.84;;;32.52;35.18
31595;BME280;18200;48.726;8.892;2022-07-23T05:28:27;96849.97;;;32.70;35.84
31595;BME280;18200;48.726;8.892;2022-07-23T05:32:28;96854.19;;;33.13;34.89
31595;BME280;18200;48.726;8.892;2022-07-23T05:36:40;96844.66;;;33.92;33.81
31595;BME280;18200;48.726;8.892;2022-07-23T05:40:41;96859.59;;;34.16;33.37
31595;BME280;18200;48.726;8.892;2022-07-23T05:44:41;96873.44;;;33.22;35.36
31595;BME280;18200;48.726;8.892;2022-07-23T05:48:42;96870.97;;;32.29;37.66
31595;BME280;18200;48.726;8.892;2022-07-23T05:53:02;96858.00;;;32.57;37.12
31595;BME280;18200;48.726;8.892;2022-07-23T05:57:32;96863.09;;;33.39;35.86
31595;BME280;18200;48.726;8.892;2022-07-23T06:01:32;96861.38;;;33.53;35.98
31595;BME280;18200;48.726;8.892;2022-07-23T06:05:42;96844.56;;;33.14;36.38
31595;BME280;18200;48.726;8.892;2022-07-23T06:09:43;96825.41;;;33.72;34.98
31595;BME280;18200;48.726;8.892;2022-07-23T06:13:44;96845.94;;;33.80;33.92
31595;BME280;18200;48.726;8.892;2022-07-23T06:17:45;96872.03;;;33.99;32.91
31595;BME280;18200;48.726;8.892;2022-07-23T06:21:46;96870.03;;;34.16;32.65
31595;BME280;18200;48.726;8.892;2022-07-23T06:25:47;96881.91;;;34.00;33.07
31595;BME280;18200;48.726;8.892;2022-07-23T06:29:47;96879.88;;;32.80;34.59
31595;BME280;18200;48.726;8.892;2022-07-23T06:33:48;96894.34;;;33.99;33.33
31595;BME280;18200;48.726;8.892;2022-07-23T06:37:48;96904.13;;;32.74;34.51
31595;BME280;18200;48.726;8.892;2022-07-23T06:41:48;96906.41;;;32.76;34.76
31595;BME280;18200;48.726;8.892;2022-07-23T06:45:51;96914.56;;;32.79;34.51
31595;BME280;18200;48.726;8.892;2022-07-23T06:49:51;96917.56;;;33.40;33.57
31595;BME280;18200;48.726;8.892;2022-07-23T06:53:52;96927.84;;;33.12;33.89
31595;BME280;18200;48.726;8.892;2022-07-23T06:57:52;96928.28;;;32.15;35.84
31595;BME280;18200;48.726;8.892;2022-07-23T07:01:52;96888.75;;;31.74;36.62
31595;BME280;18200;48.726;8.892;2022-07-23T07:05:53;96877.41;;;31.78;37.70
31595;BME280;18200;48.726;8.892;2022-07-23T07:09:53;96907.47;;;31.28;38.58
31595;BME280;18200;48.726;8.892;2022-07-23T07:13:54;96903.19;;;32.09;37.79
31595;BME280;18200;48.726;8.892;2022-07-23T07:17:54;96916.75;;;32.33;37.65
31595;BME280;18200;48.726;8.892;2022-07-23T07:21:54;96927.19;;;30.35;42.37
31595;BME280;18200;48.726;8.892;2022-07-23T07:25:55;96926.25;;;30.93;41.12
31595;BME280;18200;48.726;8.892;2022-07-23T07:29:55;96938.72;;;31.23;40.45
31595;BME280;18200;48.726;8.892;2022-07-23T07:33:55;96932.16;;;32.29;38.20
31595;BME280;18200;48.726;8.892;2022-07-23T07:37:56;96942.78;;;32.61;37.02
31595;BME280;18200;48.726;8.892;2022-07-23T07:41:57;96958.94;;;31.69;39.04
31595;BME280;18200;48.726;8.892;2022-07-23T07:45:57;96968.16;;;32.06;39.32
31595;BME280;18200;48.726;8.892;2022-07-23T07:49:58;96969.81;;;32.24;38.26
31595;BME280;18200;48.726;8.892;2022-07-23T07:53:58;96974.31;;;33.48;35.56
31595;BME280;18200;48.726;8.892;2022-07-23T07:57:59;96981.78;;;33.85;34.91
31595;BME280;18200;48.726;8.892;2022-07-23T08:01:59;96967.84;;;33.96;34.47
31595;BME280;18200;48.726;8.892;2022-07-23T08:06:00;96969.94;;;34.01;34.29
31595;BME280;18200;48.726;8.892;2022-07-23T08:10:00;96967.91;;;34.51;34.69
31595;BME280;18200;48.726;8.892;2022-07-23T08:14:00;96968.75;;;35.20;32.26
31595;BME280;18200;48.726;8.892;2022-07-23T08:18:01;96962.03;;;35.40;30.77
31595;BME280;18200;48.726;8.892;2022-07-23T08:22:01;96971.94;;;35.52;31.53
31595;BME280;18200;48.726;8.892;2022-07-23T08:26:02;96979.16;;;35.77;31.05
31595;BME280;18200;48.726;8.892;2022-07-23T08:30:03;96969.28;;;36.11;30.00
31595;BME280;18200;48.726;8.892;2022-07-23T08:34:03;96964.22;;;36.39;29.85
31595;BME280;18200;48.726;8.892;2022-07-23T08:38:05;96961.78;;;35.43;29.55
31595;BME280;18200;48.726;8.892;2022-07-23T08:42:06;96965.88;;;35.48;29.62
31595;BME280;18200;48.726;8.892;2022-07-23T08:46:07;96969.31;;;35.65;29.48
31595;BME280;18200;48.726;8.892;2022-07-23T08:50:08;96969.00;;;36.44;26.84
31595;BME280;18200;48.726;8.892;2022-07-23T08:54:09;96974.84;;;35.19;29.33
31595;BME280;18200;48.726;8.892;2022-07-23T08:58:10;96965.44;;;36.74;27.75
31595;BME280;18200;48.726;8.892;2022-07-23T09:02:11;96980.25;;;35.00;28.90
31595;BME280;18200;48.726;8.892;2022-07-23T09:06:12;96966.78;;;36.91;26.68
31595;BME280;18200;48.726;8.892;2022-07-23T09:10:12;96967.25;;;36.95;26.44
31595;BME280;18200;48.726;8.892;2022-07-23T09:14:13;96966.50;;;36.95;25.72
31595;BME280;18200;48.726;8.892;2022-07-23T09:18:15;96967.00;;;35.69;27.37
31595;BME280;18200;48.726;8.892;2022-07-23T09:22:26;96960.88;;;35.24;28.22
31595;BME280;18200;48.726;8.892;2022-07-23T09:26:31;96956.06;;;36.06;27.35
31595;BME280;18200;48.726;8.892;2022-07-23T09:30:32;96950.34;;;36.52;26.95
31595;BME280;18200;48.726;8.892;2022-07-23T09:34:36;96950.66;;;36.73;26.17
31595;BME280;18200;48.726;8.892;2022-07-23T09:38:50;96948.34;;;37.20;26.08
31595;BME280;18200;48.726;8.892;2022-07-23T09:42:56;96948.22;;;37.31;26.10
31595;BME280;18200;48.726;8.892;2022-07-23T09:46:58;96947.03;;;36.54;27.45
31595;BME280;18200;48.726;8.892;2022-07-23T09:51:02;96943.97;;;38.31;25.03
31595;BME280;18200;48.726;8.892;2022-07-23T09:55:04;96954.66;;;38.32;25.50
31595;BME280;18200;48.726;8.892;2022-07-23T09:59:05;96950.31;;;36.58;27.45
31595;BME280;18200;48.726;8.892;2022-07-23T10:03:08;96954.22;;;38.73;24.50
31595;BME280;18200;48.726;8.892;2022-07-23T10:07:17;96958.22;;;35.89;27.24
31595;BME280;18200;48.726;8.892;2022-07-23T10:11:36;96960.06;;;35.35;28.46
31595;BME280;18200;48.726;8.892;2022-07-23T10:15:47;96953.88;;;35.53;28.12
31595;BME280;18200;48.726;8.892;2022-07-23T10:19:48;96962.63;;;36.14;28.41
31595;BME280;18200;48.726;8.892;2022-07-23T10:24:16;96956.06;;;36.06;29.16
31595;BME280;18200;48.726;8.892;2022-07-23T10:28:52;96963.91;;;36.13;28.31
31595;BME280;18200;48.726;8.892;2022-07-23T10:33:26;96956.69;;;37.25;26.58
31595;BME280;18200;48.726;8.892;2022-07-23T10:37:36;96963.34;;;37.65;26.04
31595;BME280;18200;48.726;8.892;2022-07-23T10:41:39;96965.41;;;36.49;27.53
31595;BME280;18200;48.726;8.892;2022-07-23T10:45:40;96954.09;;;36.61;27.00
31595;BME280;18200;48.726;8.892;2022-07-23T10:49:40;96960.41;;;36.67;26.75
31595;BME280;18200;48.726;8.892;2022-07-23T10:53:59;96961.13;;;37.58;25.57
31595;BME280;18200;48.726;8.892;2022-07-23T10:58:04;96942.31;;;37.90;25.69
31595;BME280;18200;48.726;8.892;2022-07-23T11:02:22;96951.06;;;36.29;27.67
31595;BME280;18200;48.726;8.892;2022-07-23T11:10:54;96935.78;;;37.82;24.82
31595;BME280;18200;48.726;8.892;2022-07-23T11:15:12;96939.16;;;36.52;26.97
31595;BME280;18200;48.726;8.892;2022-07-23T11:19:13;96941.56;;;37.71;25.47
31595;BME280;18200;48.726;8.892;2022-07-23T11:23:13;96950.31;;;36.28;27.40
31595;BME280;18200;48.726;8.892;2022-07-23T11:27:14;96941.25;;;38.83;24.56
31595;BME280;18200;48.726;8.892;2022-07-23T11:31:17;96940.91;;;36.26;27.32
31595;BME280;18200;48.726;8.892;2022-07-23T11:35:25;96934.56;;;37.96;26.04
31595;BME280;18200;48.726;8.892;2022-07-23T11:39:29;96942.88;;;36.85;26.33
31595;BME280;18200;48.726;8.892;2022-07-23T11:43:30;96942.38;;;37.29;25.85
31595;BME280;18200;48.726;8.892;2022-07-23T11:47:30;96938.00;;;37.71;25.16
31595;BME280;18200;48.726;8.892;2022-07-23T11:51:30;96944.03;;;36.46;27.34
31595;BME280;18200;48.726;8.892;2022-07-23T11:55:33;96929.25;;;37.74;25.91
31595;BME280;18200;48.726;8.892;2022-07-23T11:59:33;96934.66;;;38.23;25.17
31595;BME280;18200;48.726;8.892;2022-07-23T12:03:35;96941.50;;;36.97;26.99
31595;BME280;18200;48.726;8.892;2022-07-23T12:07:38;96927.53;;;37.71;25.92
31595;BME280;18200;48.726;8.892;2022-07-23T12:11:56;96930.00;;;38.12;25.86
31595;BME280;18200;48.726;8.892;2022-07-23T12:15:57;96933.59;;;37.75;25.78
31595;BME280;18200;48.726;8.892;2022-07-23T12:19:59;96933.53;;;37.62;25.40
31595;BME280;18200;48.726;8.892;2022-07-23T12:24:07;96926.78;;;36.42;26.44
31595;BME280;18200;48.726;8.892;2022-07-23T12:28:10;96928.19;;;36.25;27.75
31595;BME280;18200;48.726;8.892;2022-07-23T12:32:22;96921.47;;;37.67;26.07
31595;BME280;18200;48.726;8.892;2022-07-23T12:36:37;96931.75;;;37.96;25.33
31595;BME280;18200;48.726;8.892;2022-07-23T12:40:50;96916.09;;;37.32;25.98
31595;BME280;18200;48.726;8.892;2022-07-23T12:45:09;96918.53;;;37.22;26.68
31595;BME280;18200;48.726;8.892;2022-07-23T12:49:25;96927.03;;;36.93;26.24
31595;BME280;18200;48.726;8.892;2022-07-23T12:53:37;96929.03;;;38.23;24.76
31595;BME280;18200;48.726;8.892;2022-07-23T12:57:46;96930.84;;;36.41;26.39
31595;BME280;18200;48.726;8.892;2022-07-23T13:01:54;96929.19;;;36.81;26.69
31595;BME280;18200;48.726;8.892;2022-07-23T13:05:55;96942.59;;;38.05;25.62
31595;BME280;18200;48.726;8.892;2022-07-23T13:09:56;96927.72;;;36.99;26.25
31595;BME280;18200;48.726;8.892;2022-07-23T13:13:56;96950.38;;;37.44;25.67
31595;BME280;18200;48.726;8.892;2022-07-23T13:17:57;96930.00;;;38.57;24.86
31595;BME280;18200;48.726;8.892;2022-07-23T13:21:57;96927.63;;;39.26;24.22
31595;BME280;18200;48.726;8.892;2022-07-23T13:25:58;96926.59;;;38.00;24.52
31595;BME280;18200;48.726;8.892;2022-07-23T13:29:58;96937.34;;;37.46;25.31
31595;BME280;18200;48.726;8.892;2022-07-23T13:33:58;96934.91;;;38.38;24.18
31595;BME280;18200;48.726;8.892;2022-07-23T13:37:59;96928.31;;;36.92;26.21
31595;BME280;18200;48.726;8.892;2022-07-23T13:41:59;96924.13;;;38.42;24.19
31595;BME280;18200;48.726;8.892;2022-07-23T13:46:00;96920.44;;;38.47;24.00
31595;BME280;18200;48.726;8.892;2022-07-23T13:50:00;96919.84;;;39.19;22.92
31595;BME280;18200;48.726;8.892;2022-07-23T13:54:00;96925.66;;;40.02;22.30
31595;BME280;18200;48.726;8.892;2022-07-23T13:58:03;96913.34;;;38.72;23.38
31595;BME280;18200;48.726;8.892;2022-07-23T14:02:05;96913.59;;;39.13;22.90
31595;BME280;18200;48.726;8.892;2022-07-23T14:06:05;96904.66;;;39.48;22.65
31595;BME280;18200;48.726;8.892;2022-07-23T14:10:07;96912.03;;;39.25;22.89
31595;BME280;18200;48.726;8.892;2022-07-23T14:14:08;96902.31;;;38.61;23.57
31595;BME280;18200;48.726;8.892;2022-07-23T14:18:08;96907.09;;;38.79;22.70
31595;BME280;18200;48.726;8.892;2022-07-23T14:22:09;96909.13;;;39.05;21.80
31595;BME280;18200;48.726;8.892;2022-07-23T14:26:09;96902.94;;;38.28;22.66
31595;BME280;18200;48.726;8.892;2022-07-23T14:30:10;96906.34;;;37.39;24.20
31595;BME280;18200;48.726;8.892;2022-07-23T14:34:11;96898.19;;;37.72;23.21
31595;BME280;18200;48.726;8.892;2022-07-23T14:38:11;96910.09;;;38.10;23.04
31595;BME280;18200;48.726;8.892;2022-07-23T14:42:12;96906.25;;;38.97;22.50
31595;BME280;18200;48.726;8.892;2022-07-23T14:46:12;96901.06;;;37.85;23.43
31595;BME280;18200;48.726;8.892;2022-07-23T14:50:14;96906.13;;;38.19;23.73
31595;BME280;18200;48.726;8.892;2022-07-23T14:54:14;96898.84;;;38.29;22.98
31595;BME280;18200;48.726;8.892;2022-07-23T14:58:14;96901.91;;;38.70;22.64
31595;BME280;18200;48.726;8.892;2022-07-23T15:02:15;96890.75;;;38.51;22.99
31595;BME280;18200;48.726;8.892;2022-07-23T15:06:16;96900.94;;;37.41;24.05
31595;BME280;18200;48.726;8.892;2022-07-23T15:10:18;96906.38;;;37.70;24.12
31595;BME280;18200;48.726;8.892;2022-07-23T15:14:19;96908.91;;;38.05;24.27
31595;BME280;18200;48.726;8.892;2022-07-23T15:18:19;96900.16;;;37.77;23.87
31595;BME280;18200;48.726;8.892;2022-07-23T15:22:20;96907.72;;;39.24;23.25
31595;BME280;18200;48.726;8.892;2022-07-23T15:26:21;96906.94;;;37.50;24.72
31595;BME280;18200;48.726;8.892;2022-07-23T15:30:26;96914.78;;;39.51;23.23
31595;BME280;18200;48.726;8.892;2022-07-23T15:34:27;96914.88;;;37.09;25.58
31595;BME280;18200;48.726;8.892;2022-07-23T15:38:27;96917.16;;;37.29;25.76
31595;BME280;18200;48.726;8.892;2022-07-23T15:42:28;96917.09;;;37.53;25.06
31595;BME280;18200;48.726;8.892;2022-07-23T15:46:28;96927.16;;;37.62;25.18
31595;BME280;18200;48.726;8.892;2022-07-23T15:50:29;96924.91;;;38.24;23.60
31595;BME280;18200;48.726;8.892;2022-07-23T15:54:29;96928.47;;;38.56;22.90
31595;BME280;18200;48.726;8.892;2022-07-23T15:58:29;96918.56;;;37.17;25.01
31595;BME280;18200;48.726;8.892;2022-07-23T16:02:30;96926.78;;;36.67;25.61
31595;BME280;18200;48.726;8.892;2022-07-23T16:06:32;96930.06;;;36.71;25.50
31595;BME280;18200;48.726;8.892;2022-07-23T16:10:33;96925.09;;;38.13;23.76
31595;BME280;18200;48.726;8.892;2022-07-23T16:14:33;96915.84;;;37.30;24.75
31595;BME280;18200;48.726;8.892;2022-07-23T16:18:33;96922.44;;;37.14;25.15
31595;BME280;18200;48.726;8.892;2022-07-23T16:22:35;96924.28;;;37.67;24.62
31595;BME280;18200;48.726;8.892;2022-07-23T16:26:35;96922.16;;;37.73;25.45
31595;BME280;18200;48.726;8.892;2022-07-23T16:30:36;96930.00;;;37.19;25.40
31595;BME280;18200;48.726;8.892;2022-07-23T16:34:36;96930.69;;;38.44;23.86
31595;BME280;18200;48.726;8.892;2022-07-23T16:38:37;96926.59;;;38.00;25.00
31595;BME280;18200;48.726;8.892;2022-07-23T16:42:38;96927.22;;;37.93;25.18
31595;BME280;18200;48.726;8.892;2022-07-23T16:46:38;96931.28;;;36.75;27.53
31595;BME280;18200;48.726;8.892;2022-07-23T16:50:39;96942.16;;;37.64;26.74
31595;BME280;18200;48.726;8.892;2022-07-23T16:54:39;96945.75;;;36.25;27.63
31595;BME280;18200;48.726;8.892;2022-07-23T16:58:40;96946.97;;;37.08;27.13
31595;BME280;18200;48.726;8.892;2022-07-23T17:02:40;96944.81;;;36.47;27.99
31595;BME280;18200;48.726;8.892;2022-07-23T17:06:42;96947.84;;;36.19;27.72
31595;BME280;18200;48.726;8.892;2022-07-23T17:10:42;96952.88;;;37.04;26.46
31595;BME280;18200;48.726;8.892;2022-07-23T17:14:42;96946.66;;;36.93;26.70
31595;BME280;18200;48.726;8.892;2022-07-23T17:18:43;96947.75;;;36.60;27.26
31595;BME280;18200;48.726;8.892;2022-07-23T17:22:43;96947.72;;;37.51;26.29
31595;BME280;18200;48.726;8.892;2022-07-23T17:26:44;96942.97;;;37.03;26.44
31595;BME280;18200;48.726;8.892;2022-07-23T17:30:45;96940.50;;;36.70;27.74
31595;BME280;18200;48.726;8.892;2022-07-23T17:34:46;96942.47;;;37.42;26.67
31595;BME280;18200;48.726;8.892;2022-07-23T17:38:46;96942.53;;;36.45;27.86
31595;BME280;18200;48.726;8.892;2022-07-23T17:42:47;96945.91;;;37.11;26.79
31595;BME280;18200;48.726;8.892;2022-07-23T17:46:47;96950.06;;;36.80;27.14
31595;BME280;18200;48.726;8.892;2022-07-23T17:50:48;96949.94;;;36.43;27.61
31595;BME280;18200;48.726;8.892;2022-07-23T17:54:48;96950.00;;;36.62;27.61
31595;BME280;18200;48.726;8.892;2022-07-23T17:58:48;96954.34;;;35.57;29.09
31595;BME280;18200;48.726;8.892;2022-07-23T18:02:49;96952.69;;;35.78;28.50
31595;BME280;18200;48.726;8.892;2022-07-23T18:06:50;96971.63;;;36.31;27.62
31595;BME280;18200;48.726;8.892;2022-07-23T18:10:51;96974.09;;;36.40;27.71
31595;BME280;18200;48.726;8.892;2022-07-23T18:14:52;96961.94;;;36.92;27.00
31595;BME280;18200;48.726;8.892;2022-07-23T18:18:52;96971.50;;;36.78;28.00
31595;BME280;18200;48.726;8.892;2022-07-23T18:22:53;96972.72;;;37.49;26.38
31595;BME280;18200;48.726;8.892;2022-07-23T18:26:53;96985.16;;;36.63;27.90
31595;BME280;18200;48.726;8.892;2022-07-23T18:30:54;96983.03;;;37.41;26.82
31595;BME280;18200;48.726;8.892;2022-07-23T18:34:54;96978.84;;;37.29;27.12
31595;BME280;18200;48.726;8.892;2022-07-23T18:38:55;96987.06;;;37.64;26.84
31595;BME280;18200;48.726;8.892;2022-07-23T18:42:56;97001.47;;;36.58;27.77
31595;BME280;18200;48.726;8.892;2022-07-23T18:46:58;97007.31;;;36.25;29.29
31595;BME280;18200;48.726;8.892;2022-07-23T18:50:58;97009.19;;;35.71;29.69
31595;BME280;18200;48.726;8.892;2022-07-23T18:54:59;97017.63;;;36.06;29.58
31595;BME280;18200;48.726;8.892;2022-07-23T18:58:59;97017.00;;;36.24;29.55
31595;BME280;18200;48.726;8.892;2022-07-23T19:03:00;97015.47;;;35.82;30.32
31595;BME280;18200;48.726;8.892;2022-07-23T19:07:01;97017.03;;;37.08;28.45
31595;BME280;18200;48.726;8.892;2022-07-23T19:11:02;97017.47;;;36.28;29.24
31595;BME280;18200;48.726;8.892;2022-07-23T19:15:04;97023.41;;;36.54;28.81
31595;BME280;18200;48.726;8.892;2022-07-23T19:19:04;97033.63;;;36.46;29.64
31595;BME280;18200;48.726;8.892;2022-07-23T19:23:05;97031.41;;;35.93;30.33
31595;BME280;18200;48.726;8.892;2022-07-23T19:27:05;97034.50;;;35.95;29.82
31595;BME280;18200;48.726;8.892;2022-07-23T19:31:06;97052.41;;;36.16;30.54
31595;BME280;18200;48.726;8.892;2022-07-23T19:35:07;97053.31;;;36.35;30.23
31595;BME280;18200;48.726;8.892;2022-07-23T19:39:08;97060.25;;;36.23;30.27
31595;BME280;18200;48.726;8.892;2022-07-23T19:43:08;97058.28;;;36.18;30.07
31595;BME280;18200;48.726;8.892;2022-07-23T19:47:09;97065.56;;;35.86;30.52
31595;BME280;18200;48.726;8.892;2022-07-23T19:51:09;97064.06;;;36.26;30.60
31595;BME280;18200;48.726;8.892;2022-07-23T19:55:10;97072.09;;;35.48;31.98
31595;BME280;18200;48.726;8.892;2022-07-23T19:59:10;97079.44;;;35.40;31.71
31595;BME280;18200;48.726;8.892;2022-07-23T20:03:11;97086.72;;;35.70;31.18
31595;BME280;18200;48.726;8.892;2022-07-23T20:07:12;97078.53;;;34.76;33.15
31595;BME280;18200;48.726;8.892;2022-07-23T20:11:12;97086.66;;;34.85;33.23
31595;BME280;18200;48.726;8.892;2022-07-23T20:15:13;97076.47;;;34.93;32.58
31595;BME280;18200;48.726;8.892;2022-07-23T20:19:14;97087.66;;;35.16;32.22
31595;BME280;18200;48.726;8.892;2022-07-23T20:23:15;97096.25;;;35.29;32.50
31595;BME280;18200;48.726;8.892;2022-07-23T20:27:15;97093.47;;;35.12;32.68
31595;BME280;18200;48.726;8.892;2022-07-23T20:31:15;97090.41;;;35.32;32.64
31595;BME280;18200;48.726;8.892;2022-07-23T20:35:16;97100.34;;;34.61;33.06
31595;BME280;18200;48.726;8.892;2022-07-23T20:39:16;97096.53;;;35.20;32.27
31595;BME280;18200;48.726;8.892;2022-07-23T20:43:16;97091.56;;;33.93;34.41
31595;BME280;18200;48.726;8.892;2022-07-23T20:47:17;97090.13;;;34.25;34.24
31595;BME280;18200;48.726;8.892;2022-07-23T20:51:19;97095.47;;;33.58;35.47
31595;BME280;18200;48.726;8.892;2022-07-23T20:55:20;97096.44;;;34.03;34.61
31595;BME280;18200;48.726;8.892;2022-07-23T20:59:20;97102.66;;;33.71;34.49
31595;BME280;18200;48.726;8.892;2022-07-23T21:03:21;97106.91;;;34.36;33.72
31595;BME280;18200;48.726;8.892;2022-07-23T21:07:21;97112.44;;;34.08;34.52
31595;BME280;18200;48.726;8.892;2022-07-23T21:11:22;97112.75;;;34.49;33.48
31595;BME280;18200;48.726;8.892;2022-07-23T21:15:22;97110.94;;;34.24;33.73
31595;BME280;18200;48.726;8.892;2022-07-23T21:19:22;97105.91;;;34.50;33.40
31595;BME280;18200;48.726;8.892;2022-07-23T21:23:23;97105.19;;;33.69;34.89
31595;BME280;18200;48.726;8.892;2022-07-23T21:27:23;97111.53;;;33.75;34.88